Flight Track Log - Related Links

Times and Time Zones

All times are in EDT time to prevent confusion due to time zone crossing. See the DAL95 flight status page for this flight to view local times or setup timezone preferences in your user account.

Time Position Orientation Groundspeed Altitude Reporting Facility
EDT Latitude Longitude Course Direction KTS MPH feet Rate Location/Type
Thu 04:49:03 PM 40.6167 -73.7667 166° South 179 206 1,500  Level New York TRACON
Thu 04:49:58 PM 40.5667 -73.7500 166° South 240 276 3,500 2,713 Climbing New York TRACON
Thu 04:50:58 PM 40.5000 -73.7333 169° South 249 287 6,700 1,952 Climbing New York TRACON
Thu 04:52:04 PM 40.4500 -73.8167 232° Southwest 261 300 7,600 1,872 Climbing New York TRACON
Thu 04:53:03 PM 40.4167 -73.9000 242° Southwest 268 308 10,600 2,269 Climbing New York TRACON
Thu 04:54:03 PM 40.3833 -74.0000 246° West 324 373 12,100 1,685 Climbing New York TRACON
Thu 04:54:32 PM 40.3597 -74.0558 241° Southwest 334 384 13,100 2,225 Climbing New York Center
Thu 04:55:32 PM 40.3211 -74.1628 245° Southwest 356 410 15,400 1,815 Climbing New York Center
Thu 04:56:31 PM 40.2803 -74.2833 246° West 374 430 16,700 750 Climbing New York Center
Thu 04:57:32 PM 40.2347 -74.4061 244° Southwest 374 430 16,900 992 Climbing New York Center
Thu 04:58:32 PM 40.1972 -74.5344 249° West 374 430 18,700 1,744 Climbing New York Center
Thu 04:59:29 PM 40.1864 -74.6806 265° West 387 445 20,300 1,983 Climbing New York Center
Thu 05:00:30 PM 40.1756 -74.8106 264° West 410 472 22,600 2,262 Climbing New York Center
Thu 05:01:31 PM 40.1661 -74.9619 265° West 399 459 24,900 1,636 Climbing New York Center
Thu 05:02:31 PM 40.1547 -75.1053 264° West 399 459 25,900 1,240 Climbing New York Center
Thu 05:03:32 PM 40.1431 -75.2483 264° West 404 465 27,400 1,664 Climbing New York Center
Thu 05:04:30 PM 40.1314 -75.3917 264° West 404 465 29,200 1,311 Climbing New York Center
Thu 05:05:31 PM 40.1197 -75.5292 264° West 404 465 30,000 393 Climbing New York Center
Thu 05:06:32 PM 40.1078 -75.6669 264° West 399 459 30,000  Level New York Center
Thu 05:07:29 PM 40.0958 -75.8044 264° West 388 447 30,000 -51 Level New York Center
Thu 05:08:30 PM 40.0836 -75.9419 263° West 388 447 29,900  Descending New York Center
Thu 05:09:30 PM 40.0711 -76.0794 263° West 388 447 30,000 50 Climbing New York Center
Thu 05:10:31 PM 40.0592 -76.2061 263° West 388 447 30,000  Level New York Center
Thu 05:11:31 PM 40.0458 -76.3569 263° West 388 447 30,000  Level New York Center
Thu 05:12:32 PM 40.0475 -76.4981 271° West 388 447 30,000  Level New York Center
Thu 05:13:30 PM 40.0447 -76.6361 269° West 388 447 30,000  Level New York Center
Thu 05:14:32 PM 40.0336 -76.7736 264° West 382 440 30,000  Level New York Center
Thu 05:15:30 PM 40.0222 -76.9161 264° West 387 445 30,000  Level New York Center
Thu 05:16:31 PM 40.0106 -77.0561 264° West 392 451 30,000  Level New York Center
Thu 05:17:31 PM 39.9969 -77.1933 263° West 392 451 30,000  Level New York Center
Thu 05:18:30 PM 39.9875 -77.3306 265° West 387 445 30,000  Level New York Center
Thu 05:20:08 PM 39.9667 -77.5653 263° West 392 451 30,000  Level Cleveland Center
Thu 05:21:08 PM 39.9536 -77.7094 263° West 392 451 30,000  Level Cleveland Center
Thu 05:22:08 PM 39.9406 -77.8508 263° West 392 451 30,000  Level Cleveland Center
Thu 05:23:08 PM 39.9250 -77.9897 262° West 392 451 30,000  Level Cleveland Center
Thu 05:24:08 PM 39.9008 -78.1258 257° West 392 451 30,000  Level Cleveland Center
Thu 05:25:08 PM 39.8789 -78.2619 258° West 392 451 30,000  Level Cleveland Center
Thu 05:26:08 PM 39.8544 -78.3981 257° West 392 451 30,000  Level Cleveland Center
Thu 05:27:08 PM 39.8297 -78.5314 256° West 397 457 30,000  Level Cleveland Center
Thu 05:28:08 PM 39.8053 -78.6725 257° West 392 451 30,000  Level Cleveland Center
Thu 05:29:08 PM 39.7803 -78.8111 257° West 392 451 30,000  Level Cleveland Center
Thu 05:30:08 PM 39.7553 -78.9494 257° West 399 459 30,000  Level Cleveland Center
Thu 05:31:08 PM 39.7383 -79.0739 260° West 399 459 30,000  Level Cleveland Center
Thu 05:32:08 PM 39.7003 -79.2044 249° West 391 450 30,000  Level Cleveland Center
Thu 05:33:08 PM 39.6558 -79.3347 246° West 391 450 30,000  Level Cleveland Center
Thu 05:34:08 PM 39.6094 -79.4650 245° Southwest 396 456 30,000  Level Cleveland Center
Thu 05:35:08 PM 39.5667 -79.5947 247° West 396 456 30,000  Level Cleveland Center
Thu 05:36:08 PM 39.5219 -79.7272 246° West 396 456 30,000  Level Cleveland Center
Thu 05:37:08 PM 39.4769 -79.8542 245° Southwest 396 456 30,000  Level Cleveland Center
Thu 05:38:08 PM 39.4319 -79.9839 246° West 396 456 30,000  Level Cleveland Center
Thu 05:40:28 PM 39.3189 -80.2989 245° Southwest 397 457 30,000  Level Indianapolis Center
Thu 05:41:30 PM 39.2722 -80.4289 245° Southwest 398 458 30,000  Level Indianapolis Center
Thu 05:42:32 PM 39.2269 -80.5611 246° West 401 461 30,000  Level Indianapolis Center
Thu 05:43:34 PM 39.1794 -80.6939 245° Southwest 407 468 30,000  Level Indianapolis Center
Thu 05:44:36 PM 39.1331 -80.8272 246° West 409 471 30,000  Level Indianapolis Center
Thu 05:45:38 PM 39.0847 -80.9606 245° Southwest 411 473 30,000  Level Indianapolis Center
Thu 05:46:40 PM 39.0275 -81.1211 245° Southwest 412 474 30,000  Level Indianapolis Center
Thu 05:47:42 PM 38.9786 -81.2542 245° Southwest 414 476 30,000  Level Indianapolis Center
Thu 05:48:44 PM 38.9306 -81.3875 245° Southwest 415 478 30,000  Level Indianapolis Center
Thu 05:49:47 PM 38.8825 -81.5208 245° Southwest 417 480 30,000  Level Indianapolis Center
Thu 05:50:49 PM 38.8347 -81.6528 245° Southwest 417 480 30,000  Level Indianapolis Center
Thu 05:51:51 PM 38.7758 -81.8092 244° Southwest 414 476 30,000  Level Indianapolis Center
Thu 05:52:53 PM 38.7269 -81.9428 245° Southwest 415 478 30,000  Level Indianapolis Center
Thu 05:53:55 PM 38.6772 -82.0761 245° Southwest 417 480 30,000  Level Indianapolis Center
Thu 05:54:57 PM 38.6267 -82.2103 244° Southwest 418 481 30,000  Level Indianapolis Center
Thu 05:55:59 PM 38.5767 -82.3444 245° Southwest 418 481 30,000  Level Indianapolis Center
Thu 05:57:01 PM 38.5164 -82.5031 244° Southwest 418 481 30,000  Level Indianapolis Center
Thu 05:58:03 PM 38.4656 -82.6375 244° Southwest 420 483 30,000  Level Indianapolis Center
Thu 05:59:05 PM 38.4139 -82.7739 244° Southwest 426 490 30,000  Level Indianapolis Center
Thu 06:00:07 PM 38.3622 -82.9078 244° Southwest 424 488 30,000  Level Indianapolis Center
Thu 06:01:09 PM 38.3108 -83.0444 244° Southwest 427 491 30,000  Level Indianapolis Center
Thu 06:02:11 PM 38.2489 -83.2028 244° Southwest 428 493 30,000  Level Indianapolis Center
Thu 06:03:13 PM 38.1958 -83.3411 244° Southwest 433 498 30,000  Level Indianapolis Center
Thu 06:04:15 PM 38.1425 -83.4775 244° Southwest 434 499 30,000  Level Indianapolis Center
Thu 06:05:17 PM 38.0889 -83.6139 243° Southwest 433 498 30,000  Level Indianapolis Center
Thu 06:06:19 PM 38.0361 -83.7503 244° Southwest 431 496 30,000  Level Indianapolis Center
Thu 06:07:21 PM 37.9722 -83.9097 243° Southwest 434 499 30,000  Level Indianapolis Center
Thu 06:08:24 PM 37.9172 -84.0478 243° Southwest 439 505 30,000  Level Indianapolis Center
Thu 06:09:26 PM 37.8625 -84.1861 243° Southwest 440 506 30,000  Level Indianapolis Center
Thu 06:10:28 PM 37.8075 -84.3258 244° Southwest 442 509 30,000  Level Indianapolis Center
Thu 06:11:30 PM 37.7517 -84.4622 243° Southwest 438 504 30,000  Level Indianapolis Center
Thu 06:12:32 PM 37.6867 -84.6239 243° Southwest 442 509 30,000  Level Indianapolis Center
Thu 06:13:34 PM 37.6325 -84.7589 243° Southwest 434 499 30,000  Level Indianapolis Center
Thu 06:14:36 PM 37.5764 -84.8958 243° Southwest 438 504 30,000  Level Indianapolis Center
Thu 06:15:38 PM 37.5203 -85.0319 243° Southwest 437 503 30,000  Level Indianapolis Center
Thu 06:16:40 PM 37.4647 -85.1669 243° Southwest 436 502 30,000  Level Indianapolis Center
Thu 06:17:42 PM 37.3975 -85.3272 242° Southwest 442 509 30,000  Level Indianapolis Center
Thu 06:18:44 PM 37.3417 -85.4644 243° Southwest 441 507 30,000  Level Indianapolis Center
Thu 06:19:56 PM 37.2731 -85.6314 243° Southwest 445 512 30,000  Level Memphis Center
Thu 06:20:56 PM 37.2158 -85.7703 243° Southwest 450 518 30,000  Level Memphis Center
Thu 06:21:56 PM 37.1122 -85.8411 209° Southwest 426 490 30,000 -150 Level Memphis Center
Thu 06:22:56 PM 36.9992 -85.8867 198° South 424 488 29,700 -400 Descending Memphis Center
Thu 06:23:56 PM 36.8800 -85.9322 197° South 435 501 29,200 -350 Descending Memphis Center
Thu 06:24:56 PM 36.7753 -85.9742 198° South 435 501 29,000 -100 Descending Memphis Center
Thu 06:25:56 PM 36.6581 -86.0194 197° South 435 501 29,000  Level Memphis Center
Thu 06:26:56 PM 36.5408 -86.0644 197° South 435 501 29,000  Level Memphis Center
Thu 06:27:56 PM 36.4236 -86.1092 197° South 440 506 29,000  Level Memphis Center
Thu 06:28:56 PM 36.2919 -86.1600 197° South 440 506 29,000  Level Memphis Center
Thu 06:29:56 PM 36.1767 -86.2044 197° South 445 512 29,000  Level Memphis Center
Thu 06:30:56 PM 36.0572 -86.2492 197° South 445 512 29,000  Level Memphis Center
Thu 06:32:59 PM 35.8156 -86.3408 197° South 448 516 29,000  Level Atlanta Center
Thu 06:33:59 PM 35.6950 -86.3300 176° South 432 497 29,000  Level Atlanta Center
Thu 06:34:59 PM 35.5858 -86.2400 146° Southeast 432 497 29,000  Level Atlanta Center
Thu 06:35:59 PM 35.4892 -86.1633 147° Southeast 451 519 29,000 -200 Level Atlanta Center
Thu 06:36:59 PM 35.3633 -86.0839 153° Southeast 460 529 28,600 -800 Descending Atlanta Center
Thu 06:37:59 PM 35.2489 -86.0656 173° South 428 493 27,400 -1,050 Descending Atlanta Center
Thu 06:38:59 PM 35.1622 -85.9975 147° Southeast 420 483 26,500 -950 Descending Atlanta Center
Thu 06:39:59 PM 35.0675 -85.9167 145° Southeast 407 468 25,500 -1,000 Descending Atlanta Center
Thu 06:40:59 PM 34.9750 -85.8333 144° Southeast 407 468 24,500 -750 Descending Atlanta Center
Thu 06:41:59 PM 34.8864 -85.7556 144° Southeast 407 468 24,000 -250 Descending Atlanta Center
Thu 06:42:59 PM 34.7956 -85.6778 145° Southeast 407 468 24,000  Level Atlanta Center
Thu 06:43:59 PM 34.7047 -85.5978 144° Southeast 402 463 24,000 -450 Level Atlanta Center
Thu 06:44:59 PM 34.6139 -85.5178 144° Southeast 402 463 23,100 -1,350 Descending Atlanta Center
Thu 06:45:59 PM 34.5292 -85.4408 143° Southeast 402 463 21,300 -1,750 Descending Atlanta Center
Thu 06:46:59 PM 34.4444 -85.3661 144° Southeast 389 448 19,600 -1,650 Descending Atlanta Center
Thu 06:47:59 PM 34.3639 -85.2944 144° Southeast 374 430 18,000 -1,650 Descending Atlanta Center
Thu 06:48:59 PM 34.2853 -85.2256 144° Southeast 363 418 16,300 -1,650 Descending Atlanta Center
Thu 06:49:59 PM 34.2089 -85.1464 139° Southeast 353 406 14,700 -1,500 Descending Atlanta Center
Thu 06:50:59 PM 34.1344 -85.0728 141° Southeast 353 406 13,300 -1,000 Descending Atlanta Center
Thu 06:51:59 PM 34.0661 -85.0067 141° Southeast 332 382 12,700 -1,100 Descending Atlanta Center
Thu 06:52:59 PM 33.9786 -84.9731 162° South 308 354 11,100 -1,700 Descending Atlanta Center
Thu 06:53:59 PM 33.9017 -84.9422 162° South 295 339 9,300 -1,050 Descending Atlanta Center
Thu 06:54:59 PM 33.8244 -84.9314 173° South 284 327 9,000 -400 Descending Atlanta Center
Thu 06:55:59 PM 33.7453 -84.9206 174° South 284 327 8,500 -1,000 Descending Atlanta Center
Thu 06:56:59 PM 33.6681 -84.9125 175° South 284 327 7,000 -811 Descending Atlanta Center
Thu 06:57:50 PM 33.6333 -84.8500 124° Southeast 252 290 7,000 -378 Level Atlanta TRACON
Thu 06:58:50 PM 33.6333 -84.7667 90° East 219 252 6,300 -900 Descending Atlanta TRACON
Thu 06:59:50 PM 33.6333 -84.7000 90° East 218 251 5,200 -1,100 Descending Atlanta TRACON
Thu 07:00:50 PM 33.6333 -84.6333 90° East 209 241 4,100 -1,050 Descending Atlanta TRACON
Thu 07:01:50 PM 33.6333 -84.5667 90° East 171 197 3,100 -900 Descending Atlanta TRACON
Thu 07:02:50 PM 33.6333 -84.5167 90° East 153 176 2,300 -800 Descending Atlanta TRACON
Thu 07:03:50 PM 33.6333 -84.4667 90° East 146 168 1,500 -800 Descending Atlanta TRACON
Thu 07:05:00 PM 33.6367 -84.4279 87° East  Level Estimated
Thu 07:12:00 PM 33.6367 -84.4279 87° East  Level Estimated
Thu 07:13:00 PM 33.6367 -84.4279 87° East  Level Estimated

Login

Don't have an account? Register now (free) for customized features, flight alerts, and more!